»·PEaware :: N650EJ KTVL-KSAN

N650EJ :: KTVL-KSAN

FLIGHT INFORMATION

Flight Status: Arrived
Operator: Privately registered:
United States
More flights under this callsign
Pilot: Maxwell R. (25989)
Aircraft: Unknown
(LEGA)
More flights by this aircraft type
Origin: KTVL Lake Tahoe
United States
Destination: KSAN San Diego Intl-Lindbergh
United States
More flights between these airports :: More routes between these airports
Route: +SWR DARBI EHF LAX COMIX2
File this flight plan on PilotEdge
Remarks:
Altitude:
(Current/Filed)
37,000ft
Speed:
(Current/Filed)
450kts
Departed: 29-Aug-19 02:05 PM
Arrived: 29-Aug-19 03:21 PM
Distance/Time
Traveled:
394nm/1:16
Distance/Time
To Go:
Arrived

Flight Plot

Page will automatically refresh every two minutes.

Flight plan parsing failed; only flown route is shown


Map Options




Map Legend


Flown Route
Filed Route
Departure Airport
Arrival Airport
Navaid (VOR, NDB)
Fix

Horizontal Profiles

Position Reports

Time Latitude Longitude Heading Altitude Ground
Speed
29-Aug-19 13:41 38.892689 -119.997922 14 6279ft 0kts
29-Aug-19 13:42 38.892689 -119.997922 14 6279ft 0kts
29-Aug-19 13:43 38.892689 -119.997922 14 6279ft 0kts
29-Aug-19 13:44 38.892689 -119.997922 14 6279ft 0kts
29-Aug-19 13:45 38.892689 -119.997922 14 6279ft 0kts
29-Aug-19 13:46 38.892689 -119.997922 14 6279ft 0kts
29-Aug-19 13:47 38.892689 -119.997922 14 6279ft 0kts
29-Aug-19 13:48 38.892689 -119.997922 14 6279ft 0kts
29-Aug-19 13:49 38.892689 -119.997922 14 6279ft 0kts
29-Aug-19 13:50 38.892689 -119.997922 14 6279ft 0kts
29-Aug-19 13:51 38.892689 -119.997922 14 6279ft 0kts
29-Aug-19 13:52 38.892689 -119.997922 14 6279ft 0kts
29-Aug-19 13:53 38.892689 -119.997922 14 6279ft 0kts
29-Aug-19 13:54 38.892689 -119.997922 14 6279ft 0kts
29-Aug-19 13:55 38.892689 -119.997922 14 6279ft 0kts
29-Aug-19 13:56 38.892689 -119.997922 14 6279ft 0kts
29-Aug-19 13:57 38.892689 -119.997922 14 6279ft 0kts
29-Aug-19 13:58 38.892689 -119.997922 14 6279ft 0kts
29-Aug-19 13:59 38.892689 -119.997922 14 6279ft 0kts
29-Aug-19 14:00 38.892689 -119.997922 14 6279ft 0kts
29-Aug-19 14:01 38.892809 -119.997183 136 6275ft 0kts
29-Aug-19 14:02 38.890474 -119.997362 191 6270ft 21kts
29-Aug-19 14:03 38.884288 -119.999150 193 6265ft 20kts
29-Aug-19 14:04 38.888720 -119.996805 12 6267ft 100kts
29-Aug-19 14:05 38.931959 -119.985698 7 7877ft 177kts
29-Aug-19 14:06 38.998765 -119.983218 334 9124ft 296kts
29-Aug-19 14:07 39.059230 -120.051727 296 12226ft 325kts
29-Aug-19 14:08 39.107442 -120.153609 293 15630ft 338kts
29-Aug-19 14:09 39.154009 -120.260177 279 18570ft 344kts
29-Aug-19 14:10 39.099999 -120.332838 174 21416ft 347kts
29-Aug-19 14:12 39.033260 -120.243463 129 24231ft 362kts
29-Aug-19 14:13 38.971467 -120.144689 153 26608ft 347kts
29-Aug-19 14:14 38.886461 -120.088649 158 28667ft 344kts
29-Aug-19 14:15 38.799282 -120.035148 158 30177ft 354kts
29-Aug-19 14:16 38.713797 -119.982909 158 32292ft 336kts
29-Aug-19 14:17 38.630379 -119.932086 158 33751ft 329kts
29-Aug-19 14:18 38.547530 -119.881737 158 34799ft 332kts
29-Aug-19 14:19 38.464146 -119.831191 158 35797ft 335kts
29-Aug-19 14:20 38.380037 -119.780340 158 36791ft 334kts
29-Aug-19 14:21 38.297305 -119.731945 170 37315ft 339kts
29-Aug-19 14:22 38.199425 -119.708300 173 37318ft 369kts
29-Aug-19 14:23 38.093663 -119.683635 172 37336ft 406kts
29-Aug-19 14:24 37.977065 -119.656544 172 37279ft 447kts
29-Aug-19 14:25 37.850741 -119.627281 172 37234ft 474kts
29-Aug-19 14:26 37.719696 -119.597037 172 37256ft 487kts
29-Aug-19 14:27 37.585843 -119.566262 172 37290ft 495kts
29-Aug-19 14:28 37.449264 -119.534978 172 37115ft 503kts
29-Aug-19 14:29 37.311287 -119.503488 172 37081ft 504kts
29-Aug-19 14:30 37.173605 -119.472196 172 37083ft 504kts
29-Aug-19 14:30 37.058621 -119.446207 171 37047ft 505kts
29-Aug-19 14:32 36.898249 -119.409934 169 37048ft 505kts
29-Aug-19 14:32 36.783385 -119.384095 169 37044ft 504kts
29-Aug-19 14:34 36.622325 -119.348001 170 37046ft 504kts
29-Aug-19 14:34 36.507672 -119.322398 170 37045ft 504kts
29-Aug-19 14:35 36.370398 -119.291848 170 37045ft 504kts
29-Aug-19 14:37 36.209956 -119.256284 170 37042ft 504kts
29-Aug-19 14:37 36.094717 -119.230827 170 37027ft 504kts
29-Aug-19 14:38 35.957001 -119.200507 170 37004ft 504kts
29-Aug-19 14:39 35.819446 -119.170328 170 37014ft 504kts
29-Aug-19 14:40 35.681663 -119.140202 170 37024ft 504kts
29-Aug-19 14:41 35.544199 -119.110257 170 37032ft 504kts
29-Aug-19 14:42 35.409215 -119.064347 160 37038ft 504kts
29-Aug-19 14:43 35.277153 -119.006801 160 37036ft 505kts
29-Aug-19 14:44 35.145001 -118.949398 160 37051ft 507kts
29-Aug-19 14:45 35.012046 -118.891822 160 37140ft 508kts
29-Aug-19 14:46 34.879277 -118.834546 161 37180ft 506kts
29-Aug-19 14:47 34.747441 -118.777889 161 37204ft 503kts
29-Aug-19 14:48 34.615592 -118.721403 161 37109ft 504kts
29-Aug-19 14:49 34.483577 -118.665028 161 37052ft 504kts
29-Aug-19 14:50 34.351675 -118.608890 161 36558ft 501kts
29-Aug-19 14:51 34.222619 -118.554154 161 34441ft 486kts
29-Aug-19 14:52 34.095532 -118.500411 161 31945ft 478kts
29-Aug-19 14:53 33.970845 -118.447864 161 29693ft 473kts
29-Aug-19 14:54 33.869988 -118.350094 133 27707ft 475kts
29-Aug-19 14:55 33.782176 -118.236645 134 26104ft 465kts
29-Aug-19 14:56 33.696220 -118.123807 133 24310ft 452kts
29-Aug-19 14:57 33.612169 -118.013669 133 22560ft 440kts
29-Aug-19 14:58 33.529232 -117.908474 137 21156ft 430kts
29-Aug-19 14:59 33.444291 -117.809926 137 20039ft 422kts
29-Aug-19 15:00 33.362485 -117.710397 135 18986ft 416kts
29-Aug-19 15:01 33.282333 -117.612961 135 17544ft 406kts
29-Aug-19 15:02 33.194846 -117.532051 145 15098ft 389kts
29-Aug-19 15:03 33.109702 -117.460693 146 12924ft 342kts
29-Aug-19 15:04 33.037663 -117.400527 146 11617ft 290kts
29-Aug-19 15:05 32.975204 -117.348156 147 10359ft 264kts
29-Aug-19 15:06 32.915818 -117.298450 147 8927ft 257kts
29-Aug-19 15:07 32.864292 -117.239922 121 7306ft 269kts
29-Aug-19 15:08 32.828570 -117.158865 104 5307ft 284kts
29-Aug-19 15:09 32.814062 -117.071206 101 5013ft 262kts
29-Aug-19 15:10 32.801235 -116.986952 101 5007ft 254kts
29-Aug-19 15:11 32.784882 -116.905483 133 4994ft 251kts
29-Aug-19 15:12 32.723697 -116.901384 191 4020ft 210kts
29-Aug-19 15:13 32.671414 -116.916953 234 3986ft 183kts
29-Aug-19 15:14 32.675937 -116.972610 282 3990ft 161kts
29-Aug-19 15:15 32.691323 -117.020516 293 3335ft 136kts
29-Aug-19 15:16 32.702679 -117.061651 284 2567ft 129kts
29-Aug-19 15:17 32.712442 -117.102746 285 1736ft 128kts
29-Aug-19 15:18 32.722303 -117.143217 286 1160ft 127kts
29-Aug-19 15:19 32.731744 -117.182216 286 26ft 115kts
29-Aug-19 15:20 32.735339 -117.198109 241 17ft 19kts
29-Aug-19 15:21 32.734155 -117.196427 105 17ft 14kts
29-Aug-19 15:22 32.733522 -117.191486 28 20ft 15kts
29-Aug-19 15:23 32.734096 -117.187143 105 20ft 19kts
29-Aug-19 15:24 32.732427 -117.180059 83 21ft 20kts
29-Aug-19 15:25 32.732381 -117.176398 144 25ft 0kts
29-Aug-19 15:26 32.732382 -117.176398 144 25ft 0kts
29-Aug-19 15:27 32.732382 -117.176398 144 25ft 0kts

Navigation Log

Ident Type
Flight plan parsing failed, navigation log unavailable